首页
METAR-TAF:

METAR-TAF

机场 :

庄內機場

庄內, 日本

纬度: 38-49N, 经度: 139-47E, 海拔: 22米

当前天气观测

该预报发布于25分钟前的09:00 UTC
风速4节,风向北转东北,在东转东北之间变化
温度 12°C
湿度 94%
气压 1002 hPa
能見度: 6000
少量云层高于800英尺
散云层高于3000英尺
多云层高于5000英尺
小雨

METAR: RJSY 010900Z 03004KT 350V060 6000 -RA FEW008 SCT030 BKN050 12/11 Q1002

时间: 18:25 (09:25 UTC)


TAF: 丢失

超过4000个机场的气象观测和天气预报(METAR&TAF报告)。

可查询的气象台以黄色和红色小点在地图上表示。

将鼠标移到小点上方,可查看气象台名称。

然后点击查看天气观测和预报。

如需切换地图:点击带黑十字的绿色按钮放大地图;点击带横线的绿色按钮缩小地图;或者点击绿色箭头查看邻近地区的地图。


METAR-TAF: